Time;durP1;ratioP1;P1;durP2;ratioP2;P2;SDS_P1;SDS_P2;PMS_P1;PMS_P2;Temp;Humidity;BMP_temperature;BMP_pressure;BME280_temperature;BME280_humidity;BME280_pressure;Samples;Min_cycle;Max_cycle;Signal;HPM_P1;HPM_P2
2021/10/10 00:01:28;;;;;;;24.83;10.63;;;;;;;;;;5097448;28;20250;-58
2021/10/10 00:03:55;;;;;;;12.27;9.40;;;;;;;;;;5096458;28;20216;-59
2021/10/10 00:06:23;;;;;;;15.23;10.85;;;;;;;;;;5096130;28;20216;-59
2021/10/10 00:08:51;;;;;;;11.05;9.23;;;;;;;;;;5096390;28;20566;-60
2021/10/10 00:11:18;;;;;;;10.77;9.40;;;;;;;;;;5096326;28;20208;-59
2021/10/10 00:13:45;;;;;;;13.52;10.50;;;;;;;;;;5096431;28;20192;-59
2021/10/10 00:16:12;;;;;;;12.90;10.02;;;;;;;;;;5096016;28;20228;-59
2021/10/10 00:18:40;;;;;;;12.20;9.18;;;;;;;;;;5096109;28;20204;-59
2021/10/10 00:21:07;;;;;;;15.95;10.10;;;;;;;;;;5096131;28;20256;-58
2021/10/10 00:23:36;;;;;;;11.95;8.90;;;;;;;;;;5095752;28;20273;-60
2021/10/10 00:26:03;;;;;;;13.38;9.63;;;;;;;;;;5096529;28;20274;-60
2021/10/10 00:28:30;;;;;;;11.50;9.50;;;;;;;;;;5097554;28;20664;-59
2021/10/10 00:30:57;;;;;;;10.52;9.48;;;;;;;;;;5096105;28;20257;-59
2021/10/10 00:33:25;;;;;;;12.20;9.30;;;;;;;;;;5095908;28;20196;-59
2021/10/10 00:35:52;;;;;;;13.32;9.50;;;;;;;;;;5095992;28;20274;-59
2021/10/10 00:38:19;;;;;;;11.10;9.07;;;;;;;;;;5095797;28;20204;-60
2021/10/10 00:40:48;;;;;;;12.73;9.75;;;;;;;;;;5095776;28;20614;-59
2021/10/10 00:43:15;;;;;;;11.30;8.95;;;;;;;;;;5095527;28;20691;-59
2021/10/10 00:45:49;;;;;;;13.02;9.77;;;;;;;;;;5094864;28;20277;-59
2021/10/10 00:48:16;;;;;;;12.43;9.90;;;;;;;;;;5095330;28;20185;-60
2021/10/10 00:50:43;;;;;;;12.95;8.98;;;;;;;;;;5096842;28;20304;-59
2021/10/10 00:53:12;;;;;;;13.48;10.02;;;;;;;;;;5099848;28;20204;-59
2021/10/10 00:55:39;;;;;;;18.20;9.52;;;;;;;;;;5097714;28;20254;-58
2021/10/10 00:58:08;;;;;;;11.30;9.05;;;;;;;;;;5099104;28;20675;-59
2021/10/10 01:00:36;;;;;;;11.90;10.30;;;;;;;;;;5099533;28;20200;-59
2021/10/10 01:03:03;;;;;;;10.48;9.15;;;;;;;;;;5095833;28;20200;-59
2021/10/10 01:05:31;;;;;;;13.93;10.48;;;;;;;;;;5095339;28;20204;-59
2021/10/10 01:07:58;;;;;;;13.40;10.50;;;;;;;;;;5095133;28;20204;-59
2021/10/10 01:10:25;;;;;;;15.50;10.35;;;;;;;;;;5095153;28;20241;-60
2021/10/10 01:12:52;;;;;;;13.45;9.48;;;5.20;99.90;;;;;;5095468;28;20200;-59
2021/10/10 01:15:21;;;;;;;10.88;9.60;;;4.80;99.90;;;;;;5095118;28;20204;-58
2021/10/10 01:17:51;;;;;;;15.32;11.00;;;;;;;;;;5095361;28;20201;-58
2021/10/10 01:20:21;;;;;;;11.73;9.82;;;;;;;;;;5097037;28;20579;-59
2021/10/10 01:22:50;;;;;;;12.00;9.38;;;;;;;;;;5097941;28;20236;-58
2021/10/10 01:25:17;;;;;;;11.60;9.98;;;;;;;;;;5099688;28;20264;-58
2021/10/10 01:27:44;;;;;;;12.93;8.70;;;;;;;;;;5105149;28;20224;-57
2021/10/10 01:30:12;;;;;;;12.63;9.88;;;;;;;;;;5106906;28;20231;-59
2021/10/10 01:32:39;;;;;;;13.20;9.93;;;;;;;;;;5108336;28;20209;-59
2021/10/10 01:35:07;;;;;;;13.45;10.27;;;;;;;;;;5109941;28;20200;-58
2021/10/10 01:37:35;;;;;;;14.80;9.98;;;;;;;;;;5108666;28;20220;-59
2021/10/10 01:40:04;;;;;;;12.35;8.93;;;;;;;;;;5108903;28;20624;-58
2021/10/10 01:42:31;;;;;;;13.25;9.25;;;;;;;;;;5110578;28;20249;-58
2021/10/10 01:44:58;;;;;;;13.80;10.25;;;;;;;;;;5109638;28;20220;-58
2021/10/10 01:47:25;;;;;;;13.98;10.15;;;;;;;;;;5110365;28;20216;-57
2021/10/10 01:49:53;;;;;;;13.10;9.25;;;;;;;;;;5102917;28;20195;-58
2021/10/10 01:52:20;;;;;;;13.05;10.82;;;;;;;;;;5098631;28;20257;-58
2021/10/10 01:54:47;;;;;;;13.48;10.88;;;;;;;;;;5097906;28;20242;-58
2021/10/10 01:57:16;;;;;;;12.15;10.30;;;;;;;;;;5098086;28;20634;-58
2021/10/10 01:59:43;;;;;;;15.93;10.50;;;;;;;;;;5099033;28;20204;-58
2021/10/10 02:02:10;;;;;;;16.95;10.95;;;;;;;;;;5096355;28;20200;-59
2021/10/10 02:04:37;;;;;;;15.18;10.60;;;;;;;;;;5094703;28;20212;-58
2021/10/10 02:07:05;;;;;;;13.38;9.73;;;;;;;;;;5095630;28;20224;-59
2021/10/10 02:09:32;;;;;;;14.85;11.63;;;;;;;;;;5097462;28;20212;-59
2021/10/10 02:11:59;;;;;;;15.07;10.75;;;;;;;;;;5097220;28;20201;-58
2021/10/10 02:14:28;;;;;;;11.10;9.18;;;;;;;;;;5099933;28;20192;-59
2021/10/10 02:16:55;;;;;;;13.50;9.85;;;;;;;;;;5098071;28;20224;-58
2021/10/10 02:19:22;;;;;;;13.98;10.38;;;;;;;;;;5095200;28;20196;-59
2021/10/10 02:21:49;;;;;;;19.42;10.65;;;;;;;;;;5094313;28;20203;-59
2021/10/10 02:24:17;;;;;;;11.95;10.45;;;;;;;;;;5093795;28;20703;-59
2021/10/10 02:26:44;;;;;;;16.92;11.20;;;;;;;;;;5094546;28;20227;-58
2021/10/10 02:29:11;;;;;;;15.50;10.52;;;;;;;;;;5093718;28;20200;-59
2021/10/10 02:31:42;;;;;;;12.68;10.48;;;;;;;;;;5093807;28;20245;-60
2021/10/10 02:34:10;;;;;;;15.95;10.52;;;;;;;;;;5094303;28;20177;-59
2021/10/10 02:36:37;;;;;;;16.20;10.55;;;;;;;;;;5093767;28;20246;-59
2021/10/10 02:39:04;;;;;;;12.07;10.40;;;;;;;;;;5094427;28;20675;-58
2021/10/10 02:41:32;;;;;;;12.77;10.40;;;;;;;;;;5093872;28;20211;-59
2021/10/10 02:43:59;;;;;;;13.80;10.48;;;;;;;;;;5097201;28;20269;-59
2021/10/10 02:46:27;;;;;;;12.77;10.95;;;;;;;;;;5100537;28;20220;-59
2021/10/10 02:48:55;;;;;;;12.10;9.27;;;;;;;;;;5101091;28;20245;-58
2021/10/10 02:51:23;;;;;;;15.05;10.27;;;;;;;;;;5103195;28;20208;-58
2021/10/10 02:53:50;;;;;;;13.98;10.70;;;;;;;;;;5101626;28;20249;-58
2021/10/10 02:56:17;;;;;;;11.50;10.30;;;;;;;;;;5101919;28;20228;-59
2021/10/10 02:58:44;;;;;;;12.88;10.40;;;;;;;;;;5100878;28;20204;-59
2021/10/10 03:01:12;;;;;;;13.60;10.63;;;;;;;;;;5099913;28;20220;-59
2021/10/10 03:03:39;;;;;;;15.30;11.35;;;;;;;;;;5095720;28;20258;-58
2021/10/10 03:06:08;;;;;;;11.43;9.73;;;;;;;;;;5094881;28;20643;-58
2021/10/10 03:08:36;;;;;;;14.25;10.15;;;;;;;;;;5099092;28;20292;-59
2021/10/10 03:11:03;;;;;;;13.80;11.05;;;;;;;;;;5100353;28;20287;-59
2021/10/10 03:13:30;;;;;;;16.85;10.27;;;;;;;;;;5099003;28;20265;-59
2021/10/10 03:15:57;;;;;;;15.93;10.32;;;;;;;;;;5098245;28;20235;-59
2021/10/10 03:18:25;;;;;;;14.65;10.90;;;;;;;;;;5098379;28;20250;-59
2021/10/10 03:20:52;;;;;;;14.23;10.30;;;;;;;;;;5106153;28;20277;-61
2021/10/10 03:23:21;;;;;;;15.48;11.40;;;;;;;;;;5105145;28;20208;-61
2021/10/10 03:25:48;;;;;;;14.63;10.32;;;;;;;;;;5103200;28;20224;-59
2021/10/10 03:28:15;;;;;;;16.45;11.80;;;;;;;;;;5100134;28;20256;-59
2021/10/10 03:30:42;;;;;;;14.00;11.20;;;;;;;;;;5098323;28;20716;-58
2021/10/10 03:33:10;;;;;;;14.18;10.25;;;;;;;;;;5097749;28;20250;-58
2021/10/10 03:35:37;;;;;;;14.00;11.30;;;;;;;;;;5097546;28;20197;-59
2021/10/10 03:38:04;;;;;;;14.73;11.18;;;;;;;;;;5097900;28;20201;-59
2021/10/10 03:40:33;;;;;;;12.43;10.63;;;;;;;;;;5096536;28;20736;-58
2021/10/10 03:43:00;;;;;;;14.32;9.90;;;;;;;;;;5096638;28;20205;-59
2021/10/10 03:45:28;;;;;;;14.45;10.82;;;;;;;;;;5096444;28;20216;-59
2021/10/10 03:47:55;;;;;;;15.80;11.90;;;;;;;;;;5096214;28;20265;-58
2021/10/10 03:50:22;;;;;;;13.88;10.40;;;;;;;;;;5096412;28;20239;-59
2021/10/10 03:52:49;;;;;;;13.52;10.23;;;;;;;;;;5096407;28;20210;-59
2021/10/10 03:58:02;;;;;;;14.65;10.88;;;;;;;;;;5095837;28;20567;-58
2021/10/10 04:00:30;;;;;;;14.43;11.73;;;;;;;;;;5096249;28;20204;-57
2021/10/10 04:02:59;;;;;;;12.77;10.32;;;;;;;;;;5096187;28;20201;-59
2021/10/10 04:08:44;;;;;;;17.00;12.05;;;;;;;;;;5112334;27;20986;-58
2021/10/10 04:11:11;;;;;;;15.10;12.40;;;;;;;;;;5111248;28;20186;-59
2021/10/10 04:13:38;;;;;;;14.93;11.55;;;;;;;;;;5111616;28;20287;-58
2021/10/10 04:16:06;;;;;;;12.68;10.15;;;;;;;;;;5111572;28;20767;-59
2021/10/10 04:18:34;;;;;;;19.15;12.77;;;;;;;;;;5111090;28;20203;-59
2021/10/10 04:21:01;;;;;;;16.45;11.82;;;;;;;;;;5111753;28;20237;-59
2021/10/10 04:23:28;;;;;;;15.95;12.30;;;;;;;;;;5111373;28;20545;-59
2021/10/10 04:25:57;;;;;;;15.40;11.45;;;;;;;;;;5111603;28;20653;-58
2021/10/10 04:28:24;;;;;;;13.43;10.63;;;;;;;;;;5112202;28;20223;-58
2021/10/10 04:30:51;;;;;;;15.75;12.00;;;;;;;;;;5112212;28;20200;-58
2021/10/10 04:33:18;;;;;;;14.95;11.88;;;3.30;99.90;;;;;;5112531;28;20244;-59
2021/10/10 04:35:48;;;;;;;17.38;12.32;;;3.20;99.90;;;;;;5112581;28;20276;-60
2021/10/10 04:38:15;;;;;;;17.40;12.65;;;3.20;99.90;;;;;;5103965;22;20312;-53
2021/10/10 04:40:42;;;;;;;14.93;11.48;;;3.20;99.90;;;;;;5050156;28;20202;-54
2021/10/10 04:43:11;;;;;;;16.15;12.68;;;3.20;99.90;;;;;;5050481;28;20214;-54
2021/10/10 04:45:38;;;;;;;16.15;13.00;;;3.20;99.90;;;;;;5050200;28;20256;-55
2021/10/10 04:48:05;;;;;;;16.35;11.85;;;3.20;99.90;;;;;;5049690;28;20238;-54
2021/10/10 04:50:32;;;;;;;17.08;11.52;;;3.20;99.90;;;;;;5050002;28;20210;-54
2021/10/10 04:53:00;;;;;;;16.73;11.80;;;3.20;99.90;;;;;;5049950;28;20197;-54
2021/10/10 04:55:27;;;;;;;16.25;11.95;;;3.20;99.90;;;;;;5049951;28;20248;-54
2021/10/10 04:57:54;;;;;;;19.88;12.40;;;3.20;99.90;;;;;;5049471;28;20218;-55
2021/10/10 05:00:22;;;;;;;13.60;11.13;;;3.10;99.90;;;;;;5049839;28;20285;-54
2021/10/10 05:02:49;;;;;;;16.60;11.57;;;3.20;99.90;;;;;;5049346;28;20210;-55
2021/10/10 05:05:16;;;;;;;17.02;12.60;;;3.20;99.90;;;;;;5049263;28;20728;-55
2021/10/10 05:07:43;;;;;;;15.90;12.30;;;3.20;99.90;;;;;;5049943;28;20221;-54
2021/10/10 05:10:10;;;;;;;16.45;11.38;;;3.20;99.90;;;;;;5049450;28;20260;-54
2021/10/10 05:12:38;;;;;;;16.60;11.98;;;3.10;99.90;;;;;;5049077;28;20743;-53
2021/10/10 05:15:05;;;;;;;17.13;12.35;;;3.10;99.90;;;;;;5049367;28;20206;-53
2021/10/10 05:17:34;;;;;;;18.20;12.27;;;3.00;99.90;;;;;;5048988;28;20218;-53
2021/10/10 05:20:00;;;;;;;16.25;11.73;;;3.00;99.90;;;;;;5036222;28;20272;-54
2021/10/10 05:22:27;;;;;;;14.35;11.25;;;3.00;99.90;;;;;;5036479;28;20208;-54
2021/10/10 05:24:57;;;;;;;13.88;11.02;;;2.90;99.90;;;;;;5036055;28;20198;-54
2021/10/10 05:27:24;;;;;;;18.88;13.00;;;2.90;99.90;;;;;;5035944;28;20309;-55
2021/10/10 05:29:51;;;;;;;14.27;11.13;;;2.90;99.90;;;;;;5035905;28;20198;-54
2021/10/10 05:32:18;;;;;;;15.07;11.75;;;2.90;99.90;;;;;;5035566;28;20256;-54
2021/10/10 05:34:46;;;;;;;17.23;13.20;;;2.80;99.90;;;;;;5035546;28;20612;-54
2021/10/10 05:37:13;;;;;;;13.55;11.30;;;2.80;99.90;;;;;;5035233;28;20195;-54
2021/10/10 05:39:40;;;;;;;14.95;11.95;;;2.80;99.90;;;;;;5035789;28;20198;-54
2021/10/10 05:42:08;;;;;;;14.15;12.10;;;2.80;99.90;;;;;;5035866;28;20202;-53
2021/10/10 05:44:35;;;;;;;18.15;12.25;;;2.80;99.90;;;;;;5036337;28;20202;-53
2021/10/10 05:47:02;;;;;;;14.15;11.77;;;2.80;99.90;;;;;;5035911;28;20226;-53
2021/10/10 05:49:29;;;;;;;17.02;11.70;;;2.80;99.90;;;;;;5035706;28;20206;-54
2021/10/10 05:51:58;;;;;;;16.20;12.57;;;2.80;99.90;;;;;;5035427;28;20674;-53
2021/10/10 05:54:27;;;;;;;16.17;12.52;;;2.90;99.90;;;;;;5035677;28;20207;-53
2021/10/10 05:56:54;;;;;;;12.73;10.25;;;2.90;99.90;;;;;;5035835;28;20203;-53
2021/10/10 05:59:22;;;;;;;15.35;12.63;;;2.90;99.90;;;;;;5035372;28;20587;-54
2021/10/10 06:01:49;;;;;;;15.90;11.65;;;3.00;99.90;;;;;;5035325;28;20202;-53
2021/10/10 06:04:16;;;;;;;15.10;11.57;;;3.00;99.90;;;;;;5035349;28;20276;-53
2021/10/10 06:06:43;;;;;;;15.77;11.38;;;3.00;99.90;;;;;;5035286;28;20574;-53
2021/10/10 06:09:11;;;;;;;16.40;11.35;;;3.10;99.90;;;;;;5035282;28;20728;-54
2021/10/10 06:11:38;;;;;;;14.77;11.40;;;3.10;99.90;;;;;;5035328;28;20202;-53
2021/10/10 06:14:06;;;;;;;15.80;11.40;;;3.20;99.90;;;;;;5036032;28;20207;-54
2021/10/10 06:16:33;;;;;;;15.85;11.85;;;3.30;99.90;;;;;;5035276;28;20206;-52
2021/10/10 06:19:01;;;;;;;15.48;11.30;;;3.30;99.90;;;;;;5034829;28;20214;-55
2021/10/10 06:21:28;;;;;;;15.10;10.63;;;3.40;99.90;;;;;;5034992;28;20210;-54
2021/10/10 06:23:55;;;;;;;14.98;10.85;;;3.40;99.90;;;;;;5034921;28;20264;-54
2021/10/10 06:26:24;;;;;;;15.48;11.23;;;3.50;99.90;;;;;;5035126;28;20544;-55
2021/10/10 06:28:51;;;;;;;14.88;10.75;;;3.50;99.90;;;;;;5035569;28;20231;-56
2021/10/10 06:31:19;;;;;;;13.43;11.73;;;3.60;99.90;;;;;;5034619;28;20206;-55
2021/10/10 06:33:46;;;;;;;12.02;10.73;;;3.70;99.90;;;;;;5035421;28;20666;-55
2021/10/10 06:36:14;;;;;;;12.20;10.57;;;3.80;99.90;;;;;;5034875;28;20210;-56
2021/10/10 06:38:41;;;;;;;14.07;10.30;;;3.90;99.90;;;;;;5034215;28;20349;-55
2021/10/10 06:41:08;;;;;;;15.23;11.95;;;4.00;99.90;;;;;;5034527;28;20206;-54
2021/10/10 06:43:36;;;;;;;14.80;12.10;;;4.10;99.90;;;;;;5033989;28;20245;-54
2021/10/10 06:46:03;;;;;;;12.80;10.43;;;4.10;99.90;;;;;;5034383;28;20207;-55
2021/10/10 06:48:30;;;;;;;17.17;10.68;;;4.20;99.90;;;;;;5034080;28;20226;-55
2021/10/10 06:50:57;;;;;;;10.45;9.38;;;4.30;99.90;;;;;;5035176;28;20198;-54
2021/10/10 06:53:24;;;;;;;14.68;11.15;;;4.40;99.90;;;;;;5034184;28;20205;-54
2021/10/10 06:55:51;;;;;;;14.82;10.70;;;4.50;99.90;;;;;;5034235;28;20339;-55
2021/10/10 06:58:18;;;;;;;13.38;9.20;;;4.60;99.90;;;;;;5034215;28;20218;-54
2021/10/10 07:00:46;;;;;;;15.00;10.98;;;4.70;99.90;;;;;;5034210;28;20302;-54
2021/10/10 07:03:13;;;;;;;12.30;10.20;;;4.80;99.90;;;;;;5033786;28;20207;-54
2021/10/10 07:05:40;;;;;;;12.98;10.65;;;5.00;99.90;;;;;;5034597;28;20210;-55
2021/10/10 07:08:07;;;;;;;13.43;9.98;;;5.10;99.90;;;;;;5034549;28;20334;-55
2021/10/10 07:10:34;;;;;;;11.57;9.80;;;5.20;99.90;;;;;;5033824;28;20252;-55
2021/10/10 07:13:01;;;;;;;14.85;10.15;;;5.30;99.90;;;;;;5034506;28;20257;-55
2021/10/10 07:15:28;;;;;;;12.77;10.27;;;5.40;99.90;;;;;;5034150;28;20202;-56
2021/10/10 07:18:00;;;;;;;12.82;10.10;;;5.50;99.90;;;;;;5033952;28;20268;-54
2021/10/10 07:20:39;;;;;;;12.38;10.02;;;5.60;99.90;;;;;;5034031;28;20247;-55
2021/10/10 07:23:12;;;;;;;12.63;11.23;;;5.80;99.90;;;;;;5033690;28;20186;-55
2021/10/10 07:25:40;;;;;;;19.00;12.70;;;5.80;99.90;;;;;;5034022;28;20183;-55
2021/10/10 07:28:07;;;;;;;12.95;10.23;;;6.00;99.90;;;;;;5033556;28;20238;-55
2021/10/10 07:30:34;;;;;;;10.82;9.15;;;6.10;99.90;;;;;;5033263;28;20677;-55
2021/10/10 07:33:02;;;;;;;13.35;10.95;;;6.20;99.90;;;;;;5033597;28;20214;-55
2021/10/10 07:35:30;;;;;;;15.35;10.30;;;6.30;99.90;;;;;;5033341;28;20202;-55
2021/10/10 07:37:57;;;;;;;15.00;10.77;;;6.40;99.90;;;;;;5033196;28;20230;-55
2021/10/10 07:40:24;;;;;;;11.40;10.00;;;6.50;99.90;;;;;;5033522;28;20206;-55
2021/10/10 07:42:51;;;;;;;10.95;9.15;;;6.60;99.90;;;;;;5033095;28;20682;-55
2021/10/10 07:45:22;;;;;;;14.35;10.23;;;6.70;99.90;;;;;;5033177;28;20258;-55
2021/10/10 07:47:50;;;;;;;11.05;9.65;;;6.80;99.90;;;;;;5033289;28;20222;-55
2021/10/10 07:50:20;;;;;;;14.35;10.25;;;6.90;99.90;;;;;;5033298;28;20212;-55
2021/10/10 07:52:48;;;;;;;16.45;9.57;;;7.00;99.90;;;;;;5033930;28;20253;-55
2021/10/10 07:55:16;;;;;;;15.93;11.10;;;7.10;99.90;;;;;;5033096;28;20256;-56
2021/10/10 07:57:43;;;;;;;12.27;10.20;;;7.20;99.90;;;;;;5033380;28;20361;-56
2021/10/10 08:00:11;;;;;;;11.52;9.00;;;7.40;99.90;;;;;;5033191;28;20198;-55
2021/10/10 08:02:52;;;;;;;12.05;9.38;;;7.50;99.90;;;;;;5033110;28;20225;-55
2021/10/10 08:05:22;;;;;;;11.63;8.63;;;7.60;99.40;;;;;;5033431;28;20551;-56
2021/10/10 08:07:50;;;;;;;12.60;8.80;;;7.70;98.90;;;;;;5033812;28;20276;-56
2021/10/10 08:10:17;;;;;;;10.43;8.02;;;7.70;98.40;;;;;;5033614;28;20201;-56
2021/10/10 08:12:44;;;;;;;9.75;8.75;;;7.80;98.10;;;;;;5033716;28;20206;-56
2021/10/10 08:15:11;;;;;;;11.45;8.70;;;8.00;97.70;;;;;;5033718;28;20751;-54
2021/10/10 08:17:39;;;;;;;9.82;8.63;;;8.10;97.30;;;;;;5033756;28;20272;-55
2021/10/10 08:20:08;;;;;;;9.05;8.15;;;8.20;96.90;;;;;;5033239;28;20252;-55
2021/10/10 08:22:37;;;;;;;12.68;9.68;;;8.30;96.40;;;;;;5033650;28;20206;-56
2021/10/10 08:25:08;;;;;;;9.88;8.90;;;8.50;96.00;;;;;;5033315;28;20206;-56
2021/10/10 08:27:35;;;;;;;9.00;8.10;;;8.60;95.50;;;;;;5032873;28;20230;-56
2021/10/10 08:30:02;;;;;;;10.30;8.98;;;8.70;95.30;;;;;;5032571;28;20257;-56
2021/10/10 08:32:29;;;;;;;9.32;8.43;;;8.90;94.70;;;;;;5032952;28;20570;-54
2021/10/10 08:34:56;;;;;;;12.65;7.95;;;9.00;94.20;;;;;;5032811;28;20289;-54
2021/10/10 08:37:23;;;;;;;10.20;7.70;;;9.10;93.70;;;;;;5032485;28;20264;-56
2021/10/10 08:39:52;;;;;;;8.50;7.60;;;9.30;93.30;;;;;;5032540;28;20178;-55
2021/10/10 08:42:22;;;;;;;11.25;8.50;;;9.40;92.80;;;;;;5032548;28;20280;-54
2021/10/10 08:44:52;;;;;;;12.00;9.25;;;9.50;92.40;;;;;;5032508;28;20301;-56
2021/10/10 08:47:23;;;;;;;8.20;7.40;;;9.60;92.00;;;;;;5032561;28;20218;-55
2021/10/10 08:49:50;;;;;;;9.40;8.18;;;9.70;91.60;;;;;;5033371;28;20618;-56
2021/10/10 08:52:17;;;;;;;11.88;8.23;;;9.90;91.30;;;;;;5032344;28;20568;-55
2021/10/10 08:54:44;;;;;;;11.63;7.97;;;10.00;90.30;;;;;;5035121;28;20252;-56
2021/10/10 08:57:13;;;;;;;12.30;9.32;;;10.20;89.90;;;;;;5036172;28;20255;-55
2021/10/10 08:59:43;;;;;;;8.73;7.87;;;10.40;89.00;;;;;;5036344;28;20198;-55
2021/10/10 09:02:19;;;;;;;10.17;8.37;;;10.50;87.90;;;;;;5036327;28;20531;-55
2021/10/10 09:04:46;;;;;;;10.10;8.30;;;10.70;87.00;;;;;;5036357;28;20523;-55
2021/10/10 09:07:13;;;;;;;8.20;7.40;;;10.80;85.90;;;;;;5035805;28;20987;-55
2021/10/10 09:09:41;;;;;;;9.40;8.43;;;11.00;84.80;;;;;;5036302;28;20550;-56
2021/10/10 09:12:10;;;;;;;10.47;8.77;;;11.20;83.90;;;;;;5037242;28;20444;-54
2021/10/10 09:14:46;;;;;;;8.20;7.07;;;11.20;82.60;;;;;;5035976;28;20441;-55
2021/10/10 09:17:14;;;;;;;10.60;8.23;;;11.40;81.40;;;;;;5035700;28;20932;-54
2021/10/10 09:19:48;;;;;;;8.90;6.80;;;11.50;80.80;;;;;;5035864;28;20624;-55
2021/10/10 09:22:15;;;;;;;8.13;7.30;;;11.70;79.70;;;;;;5036491;28;20761;-56
2021/10/10 09:24:42;;;;;;;8.50;7.60;;;11.90;78.30;;;;;;5035892;28;20502;-55
2021/10/10 09:27:12;;;;;;;9.10;7.07;;;12.00;76.40;;;;;;5035849;28;20514;-55
2021/10/10 09:29:40;;;;;;;9.63;7.40;;;12.10;75.70;;;;;;5035329;28;20485;-56
2021/10/10 09:32:11;;;;;;;8.13;6.90;;;12.30;75.00;;;;;;5035773;28;20452;-55
2021/10/10 09:34:40;;;;;;;9.97;7.63;;;12.50;73.90;;;;;;5036057;28;20441;-55
2021/10/10 09:37:10;;;;;;;11.30;8.40;;;12.70;73.10;;;;;;5035575;28;20453;-56
2021/10/10 09:39:40;;;;;;;9.30;7.87;;;12.80;72.20;;;;;;5035585;28;20805;-56
2021/10/10 09:42:07;;;;;;;10.20;7.57;;;13.00;71.40;;;;;;5035890;28;20446;-54
2021/10/10 09:44:47;;;;;;;7.77;7.00;;;13.20;70.60;;;;;;5035831;28;20797;-55
2021/10/10 09:47:17;;;;;;;10.43;8.30;;;13.40;69.70;;;;;;5035446;28;20440;-54
2021/10/10 09:49:44;;;;;;;8.27;7.33;;;13.50;69.00;;;;;;5036112;28;20465;-55
2021/10/10 09:52:15;;;;;;;7.47;6.77;;;13.70;68.20;;;;;;5035448;28;20449;-54
2021/10/10 09:54:52;;;;;;;8.63;6.87;;;13.80;67.40;;;;;;5035649;28;20445;-55
2021/10/10 09:57:20;;;;;;;9.70;7.10;;;14.00;66.50;;;;;;5035511;28;20475;-56
2021/10/10 09:59:47;;;;;;;7.97;7.27;;;14.10;65.70;;;;;;5034841;28;20443;-55
2021/10/10 10:02:16;;;;;;;9.43;7.00;;;14.30;64.80;;;;;;5035093;28;20446;-54
2021/10/10 10:04:48;;;;;;;8.00;7.23;;;14.40;64.10;;;;;;5034495;28;20445;-56
2021/10/10 10:07:16;;;;;;;8.23;7.43;;;14.60;63.50;;;;;;5035147;28;20446;-55
2021/10/10 10:09:49;;;;;;;7.87;7.07;;;14.80;62.60;;;;;;5034514;28;21057;-55
2021/10/10 10:12:18;;;;;;;10.20;8.07;;;14.90;62.00;;;;;;5034563;28;20482;-54
2021/10/10 10:14:49;;;;;;;10.87;8.20;;;15.10;61.20;;;;;;5034530;28;20456;-55
2021/10/10 10:17:18;;;;;;;8.20;7.20;;;15.20;60.60;;;;;;5034455;28;20959;-54
2021/10/10 10:19:46;;;;;;;8.87;6.80;;;15.30;60.00;;;;;;5034342;28;20547;-54
2021/10/10 10:22:16;;;;;;;10.13;6.90;;;15.40;59.40;;;;;;5034794;28;20452;-56
2021/10/10 10:24:45;;;;;;;9.07;7.60;;;15.50;59.10;;;;;;5034517;28;20894;-55
2021/10/10 10:27:13;;;;;;;9.40;8.00;;;15.50;58.70;;;;;;5034992;28;20539;-56
2021/10/10 10:29:43;;;;;;;8.50;7.60;;;15.60;58.30;;;;;;5034715;28;20472;-55
2021/10/10 10:32:12;;;;;;;9.43;7.70;;;15.60;57.90;;;;;;5034772;28;20522;-55
2021/10/10 10:34:56;;;;;;;10.65;8.02;;;15.60;57.90;;;;;;5033519;28;20469;-56
2021/10/10 10:39:53;;;;;;;8.20;7.30;;;15.60;56.20;;;;;;5055588;22;20839;-59
2021/10/10 10:42:37;;;;;;;8.83;7.93;;;15.70;56.30;;;;;;5034676;28;20495;-59
2021/10/10 10:45:19;;;;;;;7.83;7.03;;;15.90;56.10;;;;;;5034556;28;20510;-58
2021/10/10 10:47:47;;;;;;;8.80;7.53;;;16.00;56.10;;;;;;5034574;28;20508;-59
2021/10/10 10:50:20;;;;;;;8.70;7.17;;;16.10;56.00;;;;;;5034258;28;20812;-59
2021/10/10 10:52:57;;;;;;;8.57;6.37;;;16.20;55.80;;;;;;5034805;28;20425;-58
2021/10/10 10:55:26;;;;;;;9.23;7.60;;;16.40;55.30;;;;;;5033889;28;20513;-59
2021/10/10 10:57:55;;;;;;;7.80;6.67;;;16.60;54.80;;;;;;5034143;28;20473;-59
2021/10/10 11:00:28;;;;;;;6.93;6.23;;;16.80;54.30;;;;;;5034790;28;20461;-57
2021/10/10 11:03:07;;;;;;;9.27;7.40;;;17.00;53.90;;;;;;5035059;28;20493;-58
2021/10/10 11:05:41;;;;;;;8.23;7.30;;;17.10;53.30;;;;;;5034698;28;20429;-59
2021/10/10 11:08:10;;;;;;;7.90;7.17;;;17.10;52.60;;;;;;5035227;28;20993;-58
2021/10/10 11:10:38;;;;;;;11.07;6.07;;;17.10;52.50;;;;;;5035557;28;20476;-58
2021/10/10 11:13:25;;;;;;;9.40;6.60;;;17.10;52.50;;;;;;5034359;28;21003;-59
2021/10/10 11:15:54;;;;;;;8.70;7.20;;;17.10;52.00;;;;;;5034275;28;21004;-59
2021/10/10 11:18:24;;;;;;;7.83;6.10;;;17.20;52.00;;;;;;5034542;28;20470;-59
2021/10/10 11:20:54;;;;;;;8.83;6.80;;;17.10;51.80;;;;;;5035109;28;20949;-58
2021/10/10 11:23:22;;;;;;;8.67;6.43;;;17.00;51.80;;;;;;5033774;28;20448;-58
2021/10/10 11:25:50;;;;;;;8.80;6.57;;;16.90;51.90;;;;;;5034443;28;20460;-59
2021/10/10 11:28:19;;;;;;;8.80;7.10;;;16.80;51.80;;;;;;5033419;28;20591;-59
2021/10/10 11:30:46;;;;;;;10.33;6.50;;;16.60;51.60;;;;;;5033576;28;20476;-59
2021/10/10 11:33:15;;;;;;;8.50;6.60;;;16.50;51.80;;;;;;5033517;28;20452;-59
2021/10/10 11:35:43;;;;;;;8.30;6.40;;;16.40;52.00;;;;;;5033211;28;20488;-60
2021/10/10 11:38:14;;;;;;;7.70;6.47;;;16.40;52.00;;;;;;5033465;28;20548;-59
2021/10/10 11:40:59;;;;;;;7.93;5.57;;;16.30;51.80;;;;;;5033855;28;20874;-59
2021/10/10 11:43:28;;;;;;;9.70;6.10;;;16.20;51.80;;;;;;5033223;28;20957;-58
2021/10/10 11:45:57;;;;;;;7.33;6.63;;;16.20;51.90;;;;;;5033568;28;20525;-58
2021/10/10 11:48:34;;;;;;;7.77;6.70;;;16.20;52.00;;;;;;5033143;28;20477;-59
2021/10/10 11:51:01;;;;;;;7.17;6.47;;;16.20;51.90;;;;;;5033318;28;20476;-58
2021/10/10 11:53:40;;;;;;;9.80;6.87;;;16.40;51.80;;;;;;5033361;28;20472;-59
2021/10/10 11:56:07;;;;;;;6.27;5.67;;;16.60;51.50;;;;;;5033340;28;20527;-59
2021/10/10 11:58:35;;;;;;;6.90;6.17;;;16.70;50.80;;;;;;5032957;28;20469;-58
2021/10/10 12:01:10;;;;;;;7.50;6.60;;;16.90;50.60;;;;;;5033293;28;20484;-60
2021/10/10 12:03:42;;;;;;;7.40;6.43;;;17.00;50.10;;;;;;5033622;28;20811;-59
2021/10/10 12:06:20;;;;;;;9.13;5.90;;;17.10;49.90;;;;;;5033502;28;20449;-59
2021/10/10 12:08:49;;;;;;;7.30;6.20;;;17.20;49.70;;;;;;5033027;28;20464;-58
2021/10/10 12:11:16;;;;;;;7.30;5.47;;;17.40;49.70;;;;;;5033413;28;20858;-59
2021/10/10 12:13:56;;;;;;;6.53;5.93;;;17.50;49.70;;;;;;5033184;28;20450;-59
2021/10/10 12:16:24;;;;;;;6.10;5.50;;;17.50;49.20;;;;;;5033133;28;20516;-59
2021/10/10 12:18:58;;;;;;;7.93;6.13;;;17.50;48.30;;;;;;5033055;28;20859;-59
2021/10/10 12:21:26;;;;;;;7.50;5.50;;;17.30;48.10;;;;;;5033338;28;20485;-60
2021/10/10 12:24:13;;;;;;;8.33;5.63;;;17.20;48.20;;;;;;5033206;28;20453;-57
2021/10/10 12:26:49;;;;;;;7.47;5.83;;;17.20;48.10;;;;;;5033578;28;20540;-59
2021/10/10 12:29:21;;;;;;;11.43;5.97;;;17.30;48.10;;;;;;5035090;28;20489;-60
2021/10/10 12:31:49;;;;;;;7.87;6.03;;;17.30;47.90;;;;;;5037510;28;20437;-59
2021/10/10 12:34:16;;;;;;;7.10;6.40;;;17.30;47.80;;;;;;5037423;28;20449;-59
2021/10/10 12:36:45;;;;;;;10.70;6.03;;;17.40;47.90;;;;;;5037581;28;20449;-59
2021/10/10 12:39:14;;;;;;;6.90;5.77;;;17.40;47.70;;;;;;5037242;28;20832;-59
2021/10/10 12:41:41;;;;;;;6.20;5.47;;;17.30;47.50;;;;;;5036873;28;20498;-58
2021/10/10 12:44:17;;;;;;;8.07;5.63;;;17.30;47.20;;;;;;5037068;28;20454;-59
2021/10/10 12:46:49;;;;;;;7.10;5.00;;;17.20;47.20;;;;;;5036730;28;20933;-58
2021/10/10 12:49:27;;;;;;;6.07;5.20;;;17.00;47.20;;;;;;5036579;28;20485;-58
2021/10/10 12:51:55;;;;;;;6.43;5.77;;;16.80;47.10;;;;;;5036565;28;20536;-59
2021/10/10 12:54:26;;;;;;;8.83;5.40;;;16.70;47.40;;;;;;5036807;28;20464;-59
2021/10/10 12:57:16;;;;;;;5.50;4.83;;;16.60;47.40;;;;;;5036707;28;20516;-59
2021/10/10 12:59:51;;;;;;;7.53;5.67;;;16.50;47.30;;;;;;5031317;28;20480;-59
2021/10/10 13:02:18;;;;;;;5.80;5.20;;;16.40;47.40;;;;;;5037261;28;20472;-59
2021/10/10 13:04:45;;;;;;;6.30;5.40;;;16.30;47.50;;;;;;5037311;28;20444;-58
2021/10/10 13:07:14;;;;;;;7.77;5.40;;;16.20;47.50;;;;;;5038608;28;20442;-59
2021/10/10 13:09:43;;;;;;;7.50;5.53;;;16.20;47.70;;;;;;5037526;28;20488;-59
2021/10/10 13:12:10;;;;;;;8.67;5.53;;;16.00;47.70;;;;;;5036544;28;20449;-60
2021/10/10 13:14:37;;;;;;;6.60;5.17;;;15.90;47.90;;;;;;5036648;28;20449;-59
2021/10/10 13:17:05;;;;;;;6.47;5.87;;;15.80;48.00;;;;;;5037247;28;20496;-59
2021/10/10 13:19:32;;;;;;;7.00;5.03;;;15.80;48.30;;;;;;5037355;28;20464;-58
2021/10/10 13:21:59;;;;;;;12.13;5.47;;;15.80;48.20;;;;;;5037653;28;20456;-59
2021/10/10 13:24:26;;;;;;;8.07;5.50;;;15.90;48.30;;;;;;5038092;28;20877;-59
2021/10/10 13:26:55;;;;;;;6.27;5.60;;;15.90;48.40;;;;;;5039695;28;20452;-59
2021/10/10 13:29:22;;;;;;;8.67;4.60;;;16.00;48.60;;;;;;5040838;28;20546;-58